sensor_id;sensor_type;location;lat;lon;timestamp;pressure;altitude;pressure_sealevel;temperature;humidity
16777;BME280;8505;49.456;8.164;2022-11-20T00:00:52;99345.84;;;3.89;88.57
16777;BME280;8505;49.456;8.164;2022-11-20T00:03:20;99331.72;;;4.09;87.57
16777;BME280;8505;49.456;8.164;2022-11-20T00:05:49;99322.47;;;4.24;86.57
16777;BME280;8505;49.456;8.164;2022-11-20T00:08:17;99332.09;;;4.33;85.19
16777;BME280;8505;49.456;8.164;2022-11-20T00:10:44;99327.16;;;4.21;85.73
16777;BME280;8505;49.456;8.164;2022-11-20T00:13:12;99323.34;;;4.05;85.93
16777;BME280;8505;49.456;8.164;2022-11-20T00:15:40;99315.97;;;4.38;85.71
16777;BME280;8505;49.456;8.164;2022-11-20T00:18:09;99326.38;;;4.11;86.42
16777;BME280;8505;49.456;8.164;2022-11-20T00:20:36;99308.16;;;4.19;86.39
16777;BME280;8505;49.456;8.164;2022-11-20T00:23:04;99319.69;;;4.35;84.82
16777;BME280;8505;49.456;8.164;2022-11-20T00:25:33;99314.19;;;4.29;85.67
16777;BME280;8505;49.456;8.164;2022-11-20T00:28:01;99316.97;;;4.18;84.23
16777;BME280;8505;49.456;8.164;2022-11-20T00:30:29;99323.22;;;4.07;85.94
16777;BME280;8505;49.456;8.164;2022-11-20T00:32:56;99323.47;;;4.04;86.30
16777;BME280;8505;49.456;8.164;2022-11-20T00:35:26;99322.78;;;4.12;86.31
16777;BME280;8505;49.456;8.164;2022-11-20T00:37:53;99320.56;;;4.17;86.02
16777;BME280;8505;49.456;8.164;2022-11-20T00:40:21;99325.66;;;4.18;86.58
16777;BME280;8505;49.456;8.164;2022-11-20T00:42:49;99337.25;;;4.16;85.75
16777;BME280;8505;49.456;8.164;2022-11-20T00:45:16;99337.84;;;4.00;87.41
16777;BME280;8505;49.456;8.164;2022-11-20T00:47:44;99338.59;;;4.20;86.60
16777;BME280;8505;49.456;8.164;2022-11-20T00:50:12;99344.66;;;3.24;88.03
16777;BME280;8505;49.456;8.164;2022-11-20T00:52:42;99346.50;;;3.52;88.33
16777;BME280;8505;49.456;8.164;2022-11-20T00:55:09;99345.69;;;3.71;88.33
16777;BME280;8505;49.456;8.164;2022-11-20T00:57:37;99346.94;;;3.67;87.64
16777;BME280;8505;49.456;8.164;2022-11-20T01:00:06;99347.56;;;3.40;88.75
16777;BME280;8505;49.456;8.164;2022-11-20T01:02:34;99343.19;;;3.60;88.37
16777;BME280;8505;49.456;8.164;2022-11-20T01:05:02;99330.94;;;3.89;86.92
16777;BME280;8505;49.456;8.164;2022-11-20T01:07:30;99323.75;;;3.91;86.96
16777;BME280;8505;49.456;8.164;2022-11-20T01:10:00;99336.13;;;3.12;87.17
16777;BME280;8505;49.456;8.164;2022-11-20T01:12:28;99330.50;;;3.46;87.65
16777;BME280;8505;49.456;8.164;2022-11-20T01:14:55;99325.97;;;3.77;87.03
16777;BME280;8505;49.456;8.164;2022-11-20T01:17:23;99330.25;;;3.68;85.23
16777;BME280;8505;49.456;8.164;2022-11-20T01:19:51;99328.03;;;3.35;86.34
16777;BME280;8505;49.456;8.164;2022-11-20T01:22:18;99329.16;;;3.61;85.96
16777;BME280;8505;49.456;8.164;2022-11-20T01:24:46;99331.34;;;2.87;89.07
16777;BME280;8505;49.456;8.164;2022-11-20T01:27:15;99334.16;;;2.95;89.77
16777;BME280;8505;49.456;8.164;2022-11-20T01:29:43;99330.19;;;3.10;89.72
16777;BME280;8505;49.456;8.164;2022-11-20T01:32:11;99335.47;;;3.39;87.82
16777;BME280;8505;49.456;8.164;2022-11-20T01:34:38;99329.41;;;3.39;87.92
16777;BME280;8505;49.456;8.164;2022-11-20T01:37:06;99329.97;;;3.42;88.37
16777;BME280;8505;49.456;8.164;2022-11-20T01:39:34;99322.38;;;3.97;86.67
16777;BME280;8505;49.456;8.164;2022-11-20T01:42:01;99314.13;;;3.82;87.27
16777;BME280;8505;49.456;8.164;2022-11-20T01:44:54;99314.25;;;4.00;86.77
16777;BME280;8505;49.456;8.164;2022-11-20T01:47:29;99307.06;;;4.12;85.91
16777;BME280;8505;49.456;8.164;2022-11-20T01:50:02;99309.56;;;3.46;86.98
16777;BME280;8505;49.456;8.164;2022-11-20T01:52:35;99316.88;;;3.42;88.94
16777;BME280;8505;49.456;8.164;2022-11-20T01:55:07;99311.78;;;3.79;88.35
16777;BME280;8505;49.456;8.164;2022-11-20T01:57:37;99310.28;;;3.57;87.32
16777;BME280;8505;49.456;8.164;2022-11-20T02:00:10;99302.81;;;3.72;88.35
16777;BME280;8505;49.456;8.164;2022-11-20T02:02:39;99303.25;;;3.87;87.71
16777;BME280;8505;49.456;8.164;2022-11-20T02:05:16;99296.19;;;4.06;86.11
16777;BME280;8505;49.456;8.164;2022-11-20T02:07:47;99291.69;;;4.36;83.89
16777;BME280;8505;49.456;8.164;2022-11-20T02:10:15;99292.06;;;4.41;83.92
16777;BME280;8505;49.456;8.164;2022-11-20T02:12:43;99297.38;;;4.31;84.82
16777;BME280;8505;49.456;8.164;2022-11-20T02:15:32;99291.31;;;4.21;84.15
16777;BME280;8505;49.456;8.164;2022-11-20T02:18:01;99297.16;;;4.05;86.30
16777;BME280;8505;49.456;8.164;2022-11-20T02:20:29;99294.06;;;4.20;85.53
16777;BME280;8505;49.456;8.164;2022-11-20T02:23:00;99300.13;;;4.30;85.37
16777;BME280;8505;49.456;8.164;2022-11-20T02:25:33;99303.25;;;4.43;85.02
16777;BME280;8505;49.456;8.164;2022-11-20T02:28:03;99292.13;;;4.22;85.63
16777;BME280;8505;49.456;8.164;2022-11-20T02:30:31;99299.72;;;4.25;85.95
16777;BME280;8505;49.456;8.164;2022-11-20T02:32:58;99297.38;;;4.31;85.55
16777;BME280;8505;49.456;8.164;2022-11-20T02:35:41;99295.28;;;4.35;85.59
16777;BME280;8505;49.456;8.164;2022-11-20T02:38:09;99301.00;;;4.01;84.94
16777;BME280;8505;49.456;8.164;2022-11-20T02:40:38;99303.78;;;3.90;87.06
16777;BME280;8505;49.456;8.164;2022-11-20T02:43:06;99299.94;;;3.94;87.75
16777;BME280;8505;49.456;8.164;2022-11-20T02:45:34;99296.84;;;4.08;86.94
16777;BME280;8505;49.456;8.164;2022-11-20T02:48:02;99293.41;;;4.08;87.37
16777;BME280;8505;49.456;8.164;2022-11-20T02:50:30;99286.31;;;4.28;86.14
16777;BME280;8505;49.456;8.164;2022-11-20T02:52:57;99287.81;;;4.40;85.18
16777;BME280;8505;49.456;8.164;2022-11-20T02:55:25;99283.56;;;4.29;85.54
16777;BME280;8505;49.456;8.164;2022-11-20T02:57:54;99279.63;;;4.06;86.20
16777;BME280;8505;49.456;8.164;2022-11-20T03:00:22;99281.31;;;3.78;87.02
16777;BME280;8505;49.456;8.164;2022-11-20T03:02:50;99279.69;;;3.67;87.95
16777;BME280;8505;49.456;8.164;2022-11-20T03:05:17;99283.13;;;3.58;88.69
16777;BME280;8505;49.456;8.164;2022-11-20T03:07:45;99279.53;;;3.59;89.92
16777;BME280;8505;49.456;8.164;2022-11-20T03:10:13;99288.91;;;3.52;89.69
16777;BME280;8505;49.456;8.164;2022-11-20T03:12:40;99281.91;;;3.43;90.53
16777;BME280;8505;49.456;8.164;2022-11-20T03:15:11;99290.19;;;3.58;90.95
16777;BME280;8505;49.456;8.164;2022-11-20T03:17:38;99267.69;;;3.65;91.25
16777;BME280;8505;49.456;8.164;2022-11-20T03:20:08;99270.19;;;3.66;89.96
16777;BME280;8505;49.456;8.164;2022-11-20T03:22:36;99273.47;;;3.59;90.57
16777;BME280;8505;49.456;8.164;2022-11-20T03:25:04;99272.06;;;3.84;89.59
16777;BME280;8505;49.456;8.164;2022-11-20T03:27:33;99262.44;;;3.65;90.51
16777;BME280;8505;49.456;8.164;2022-11-20T03:30:01;99260.56;;;3.57;89.32
16777;BME280;8505;49.456;8.164;2022-11-20T03:32:30;99263.72;;;3.32;90.86
16777;BME280;8505;49.456;8.164;2022-11-20T03:34:58;99260.97;;;3.62;91.34
16777;BME280;8505;49.456;8.164;2022-11-20T03:37:26;99262.44;;;3.65;91.56
16777;BME280;8505;49.456;8.164;2022-11-20T03:39:53;99278.03;;;3.47;91.97
16777;BME280;8505;49.456;8.164;2022-11-20T03:42:21;99277.19;;;3.66;91.28
16777;BME280;8505;49.456;8.164;2022-11-20T03:45:08;99268.63;;;3.93;89.63
16777;BME280;8505;49.456;8.164;2022-11-20T03:47:37;99264.50;;;3.90;89.72
16777;BME280;8505;49.456;8.164;2022-11-20T03:50:05;99263.09;;;3.96;90.30
16777;BME280;8505;49.456;8.164;2022-11-20T03:52:33;99257.16;;;4.03;89.89
16777;BME280;8505;49.456;8.164;2022-11-20T03:55:01;99263.25;;;3.94;89.20
16777;BME280;8505;49.456;8.164;2022-11-20T03:57:28;99255.53;;;3.83;89.61
16777;BME280;8505;49.456;8.164;2022-11-20T03:59:56;99243.44;;;3.73;90.46
16777;BME280;8505;49.456;8.164;2022-11-20T04:02:24;99233.78;;;3.73;91.32
16777;BME280;8505;49.456;8.164;2022-11-20T04:04:53;99250.06;;;3.48;91.51
16777;BME280;8505;49.456;8.164;2022-11-20T04:07:21;99251.72;;;3.58;91.57
16777;BME280;8505;49.456;8.164;2022-11-20T04:09:49;99255.44;;;3.65;91.54
16777;BME280;8505;49.456;8.164;2022-11-20T04:12:16;99267.56;;;3.38;92.55
16777;BME280;8505;49.456;8.164;2022-11-20T04:14:44;99264.00;;;3.39;93.39
16777;BME280;8505;49.456;8.164;2022-11-20T04:17:12;99267.72;;;3.55;93.41
16777;BME280;8505;49.456;8.164;2022-11-20T04:19:39;99269.34;;;3.28;94.36
16777;BME280;8505;49.456;8.164;2022-11-20T04:22:08;99272.81;;;3.57;92.58
16777;BME280;8505;49.456;8.164;2022-11-20T04:24:37;99261.75;;;3.73;93.53
16777;BME280;8505;49.456;8.164;2022-11-20T04:27:05;99267.56;;;3.76;92.14
16777;BME280;8505;49.456;8.164;2022-11-20T04:29:33;99272.38;;;3.71;92.05
16777;BME280;8505;49.456;8.164;2022-11-20T04:32:00;99262.16;;;3.87;91.12
16777;BME280;8505;49.456;8.164;2022-11-20T04:34:28;99269.75;;;3.52;93.17
16777;BME280;8505;49.456;8.164;2022-11-20T04:36:56;99251.03;;;3.66;92.91
16777;BME280;8505;49.456;8.164;2022-11-20T04:39:25;99246.81;;;4.02;91.85
16777;BME280;8505;49.456;8.164;2022-11-20T04:41:53;99243.22;;;4.03;91.52
16777;BME280;8505;49.456;8.164;2022-11-20T04:44:40;99249.63;;;4.37;90.38
16777;BME280;8505;49.456;8.164;2022-11-20T04:47:09;99244.75;;;4.05;89.89
16777;BME280;8505;49.456;8.164;2022-11-20T04:49:37;99243.63;;;4.18;91.15
16777;BME280;8505;49.456;8.164;2022-11-20T04:52:05;99242.78;;;4.54;88.60
16777;BME280;8505;49.456;8.164;2022-11-20T04:54:34;99243.97;;;4.60;88.09
16777;BME280;8505;49.456;8.164;2022-11-20T04:57:02;99237.78;;;4.61;87.55
16777;BME280;8505;49.456;8.164;2022-11-20T04:59:29;99233.66;;;4.21;89.59
16777;BME280;8505;49.456;8.164;2022-11-20T05:01:57;99236.84;;;3.69;90.38
16777;BME280;8505;49.456;8.164;2022-11-20T05:04:25;99248.03;;;3.32;92.60
16777;BME280;8505;49.456;8.164;2022-11-20T05:06:53;99244.13;;;3.65;92.33
16777;BME280;8505;49.456;8.164;2022-11-20T05:09:21;99240.34;;;3.96;90.59
16777;BME280;8505;49.456;8.164;2022-11-20T05:11:50;99240.31;;;4.16;89.04
16777;BME280;8505;49.456;8.164;2022-11-20T05:14:18;99249.88;;;4.44;88.30
16777;BME280;8505;49.456;8.164;2022-11-20T05:16:46;99249.16;;;4.05;89.55
16777;BME280;8505;49.456;8.164;2022-11-20T05:19:13;99245.66;;;4.24;89.37
16777;BME280;8505;49.456;8.164;2022-11-20T05:21:41;99248.38;;;3.95;88.51
16777;BME280;8505;49.456;8.164;2022-11-20T05:24:09;99235.97;;;4.34;88.21
16777;BME280;8505;49.456;8.164;2022-11-20T05:26:37;99224.94;;;4.30;88.19
16777;BME280;8505;49.456;8.164;2022-11-20T05:29:31;99230.44;;;4.37;89.12
16777;BME280;8505;49.456;8.164;2022-11-20T05:31:59;99223.56;;;4.26;89.72
16777;BME280;8505;49.456;8.164;2022-11-20T05:34:27;99217.59;;;4.43;89.14
16777;BME280;8505;49.456;8.164;2022-11-20T05:36:55;99222.41;;;4.38;88.75
16777;BME280;8505;49.456;8.164;2022-11-20T05:39:23;99223.25;;;4.66;87.24
16777;BME280;8505;49.456;8.164;2022-11-20T05:41:51;99223.84;;;4.60;87.68
16777;BME280;8505;49.456;8.164;2022-11-20T05:44:40;99218.75;;;4.22;86.66
16777;BME280;8505;49.456;8.164;2022-11-20T05:47:07;99221.75;;;3.99;90.24
16777;BME280;8505;49.456;8.164;2022-11-20T05:49:36;99223.00;;;3.86;90.18
16777;BME280;8505;49.456;8.164;2022-11-20T05:52:04;99220.38;;;4.32;89.36
16777;BME280;8505;49.456;8.164;2022-11-20T05:54:32;99225.50;;;3.87;90.59
16777;BME280;8505;49.456;8.164;2022-11-20T05:57:00;99227.72;;;3.82;90.96
16777;BME280;8505;49.456;8.164;2022-11-20T05:59:28;99222.97;;;4.05;89.77
16777;BME280;8505;49.456;8.164;2022-11-20T06:01:57;99222.13;;;4.04;90.31
16777;BME280;8505;49.456;8.164;2022-11-20T06:04:24;99219.78;;;4.11;90.51
16777;BME280;8505;49.456;8.164;2022-11-20T06:06:52;99216.53;;;4.27;90.33
16777;BME280;8505;49.456;8.164;2022-11-20T06:09:20;99205.38;;;3.78;90.53
16777;BME280;8505;49.456;8.164;2022-11-20T06:11:48;99211.72;;;4.22;90.19
16777;BME280;8505;49.456;8.164;2022-11-20T06:14:16;99219.44;;;3.77;90.53
16777;BME280;8505;49.456;8.164;2022-11-20T06:16:43;99216.72;;;3.59;91.74
16777;BME280;8505;49.456;8.164;2022-11-20T06:19:12;99220.22;;;4.06;90.98
16777;BME280;8505;49.456;8.164;2022-11-20T06:21:41;99207.47;;;3.65;92.19
16777;BME280;8505;49.456;8.164;2022-11-20T06:24:09;99211.03;;;4.20;90.47
16777;BME280;8505;49.456;8.164;2022-11-20T06:26:37;99212.09;;;4.37;89.11
16777;BME280;8505;49.456;8.164;2022-11-20T06:29:05;99214.97;;;4.06;90.39
16777;BME280;8505;49.456;8.164;2022-11-20T06:31:33;99219.69;;;3.84;91.07
16777;BME280;8505;49.456;8.164;2022-11-20T06:34:04;99211.47;;;3.69;91.53
16777;BME280;8505;49.456;8.164;2022-11-20T06:36:33;99222.66;;;4.08;90.42
16777;BME280;8505;49.456;8.164;2022-11-20T06:39:02;99224.94;;;3.93;90.86
16777;BME280;8505;49.456;8.164;2022-11-20T06:41:29;99222.13;;;4.04;90.69
16777;BME280;8505;49.456;8.164;2022-11-20T06:43:57;99221.00;;;4.17;90.62
16777;BME280;8505;49.456;8.164;2022-11-20T06:46:25;99219.25;;;3.98;91.32
16777;BME280;8505;49.456;8.164;2022-11-20T06:48:52;99220.28;;;4.24;90.10
16777;BME280;8505;49.456;8.164;2022-11-20T06:51:21;99212.63;;;4.40;89.52
16777;BME280;8505;49.456;8.164;2022-11-20T06:53:50;99225.38;;;4.53;88.76
16777;BME280;8505;49.456;8.164;2022-11-20T06:56:17;99218.94;;;4.47;87.87
16777;BME280;8505;49.456;8.164;2022-11-20T06:58:45;99224.13;;;3.83;90.22
16777;BME280;8505;49.456;8.164;2022-11-20T07:01:14;99230.44;;;4.37;88.71
16777;BME280;8505;49.456;8.164;2022-11-20T07:03:42;99222.50;;;4.56;88.11
16777;BME280;8505;49.456;8.164;2022-11-20T07:06:10;99229.34;;;4.57;86.69
16777;BME280;8505;49.456;8.164;2022-11-20T07:08:38;99232.75;;;4.13;89.81
16777;BME280;8505;49.456;8.164;2022-11-20T07:11:07;99232.41;;;3.79;91.05
16777;BME280;8505;49.456;8.164;2022-11-20T07:13:35;99242.78;;;4.07;90.80
16777;BME280;8505;49.456;8.164;2022-11-20T07:16:05;99244.41;;;4.28;89.81
16777;BME280;8505;49.456;8.164;2022-11-20T07:18:34;99243.78;;;4.43;89.71
16777;BME280;8505;49.456;8.164;2022-11-20T07:21:02;99239.72;;;4.22;90.18
16777;BME280;8505;49.456;8.164;2022-11-20T07:23:30;99242.03;;;4.34;90.00
16777;BME280;8505;49.456;8.164;2022-11-20T07:25:58;99247.88;;;4.56;89.02
16777;BME280;8505;49.456;8.164;2022-11-20T07:28:27;99246.56;;;4.42;89.10
16777;BME280;8505;49.456;8.164;2022-11-20T07:30:54;99245.19;;;4.38;89.87
16777;BME280;8505;49.456;8.164;2022-11-20T07:33:22;99248.53;;;4.58;88.46
16777;BME280;8505;49.456;8.164;2022-11-20T07:35:49;99246.16;;;4.64;89.04
16777;BME280;8505;49.456;8.164;2022-11-20T07:38:17;99242.41;;;4.39;89.67
16777;BME280;8505;49.456;8.164;2022-11-20T07:40:45;99244.72;;;4.79;87.99
16777;BME280;8505;49.456;8.164;2022-11-20T07:43:12;99250.84;;;4.43;88.85
16777;BME280;8505;49.456;8.164;2022-11-20T07:45:41;99248.88;;;4.08;91.01
16777;BME280;8505;49.456;8.164;2022-11-20T07:48:09;99249.13;;;4.52;89.85
16777;BME280;8505;49.456;8.164;2022-11-20T07:50:37;99249.22;;;3.86;91.15
16777;BME280;8505;49.456;8.164;2022-11-20T07:53:05;99234.81;;;4.46;89.08
16777;BME280;8505;49.456;8.164;2022-11-20T07:55:33;99242.81;;;4.72;88.95
16777;BME280;8505;49.456;8.164;2022-11-20T07:58:00;99247.50;;;4.96;88.17
16777;BME280;8505;49.456;8.164;2022-11-20T08:00:28;99244.06;;;4.95;87.44
16777;BME280;8505;49.456;8.164;2022-11-20T08:02:58;99245.78;;;4.86;86.10
16777;BME280;8505;49.456;8.164;2022-11-20T08:05:25;99251.31;;;4.83;87.97
16777;BME280;8505;49.456;8.164;2022-11-20T08:07:53;99249.38;;;4.85;87.45
16777;BME280;8505;49.456;8.164;2022-11-20T08:10:21;99253.66;;;4.86;88.56
16777;BME280;8505;49.456;8.164;2022-11-20T08:12:50;99249.88;;;4.89;88.51
16777;BME280;8505;49.456;8.164;2022-11-20T08:15:37;99251.19;;;5.03;88.75
16777;BME280;8505;49.456;8.164;2022-11-20T08:18:08;99259.53;;;4.71;88.36
16777;BME280;8505;49.456;8.164;2022-11-20T08:20:57;99268.53;;;4.68;89.85
16777;BME280;8505;49.456;8.164;2022-11-20T08:23:24;99268.63;;;4.39;90.77
16777;BME280;8505;49.456;8.164;2022-11-20T08:25:52;99275.94;;;4.73;90.44
16777;BME280;8505;49.456;8.164;2022-11-20T08:28:20;99281.41;;;4.52;91.16
16777;BME280;8505;49.456;8.164;2022-11-20T08:30:48;99275.38;;;4.69;91.20
16777;BME280;8505;49.456;8.164;2022-11-20T08:33:18;99277.63;;;4.64;91.26
16777;BME280;8505;49.456;8.164;2022-11-20T08:35:46;99284.50;;;4.75;90.52
16777;BME280;8505;49.456;8.164;2022-11-20T08:38:13;99287.19;;;4.83;90.28
16777;BME280;8505;49.456;8.164;2022-11-20T08:40:41;99286.69;;;4.79;88.47
16777;BME280;8505;49.456;8.164;2022-11-20T08:43:29;99299.34;;;4.84;89.92
16777;BME280;8505;49.456;8.164;2022-11-20T08:45:56;99296.34;;;4.79;88.83
16777;BME280;8505;49.456;8.164;2022-11-20T08:48:25;99298.97;;;4.79;89.42
16777;BME280;8505;49.456;8.164;2022-11-20T08:50:53;99299.44;;;4.65;89.21
16777;BME280;8505;49.456;8.164;2022-11-20T08:53:24;99307.06;;;4.85;89.80
16777;BME280;8505;49.456;8.164;2022-11-20T08:55:53;99307.41;;;4.73;90.02
16777;BME280;8505;49.456;8.164;2022-11-20T08:58:20;99300.81;;;4.69;89.02
16777;BME280;8505;49.456;8.164;2022-11-20T09:00:48;99300.34;;;5.01;89.67
16777;BME280;8505;49.456;8.164;2022-11-20T09:03:16;99298.66;;;4.82;88.53
16777;BME280;8505;49.456;8.164;2022-11-20T09:05:45;99307.56;;;4.99;89.42
16777;BME280;8505;49.456;8.164;2022-11-20T09:08:12;99306.59;;;4.72;89.84
16777;BME280;8505;49.456;8.164;2022-11-20T09:10:40;99303.25;;;4.80;89.98
16777;BME280;8505;49.456;8.164;2022-11-20T09:13:08;99307.56;;;4.99;87.73
16777;BME280;8505;49.456;8.164;2022-11-20T09:15:36;99312.31;;;4.85;89.36
16777;BME280;8505;49.456;8.164;2022-11-20T09:18:03;99307.97;;;4.30;90.11
16777;BME280;8505;49.456;8.164;2022-11-20T09:20:31;99307.69;;;4.70;90.71
16777;BME280;8505;49.456;8.164;2022-11-20T09:23:01;99313.81;;;4.88;88.78
16777;BME280;8505;49.456;8.164;2022-11-20T09:25:28;99309.16;;;4.82;89.58
16777;BME280;8505;49.456;8.164;2022-11-20T09:27:57;99308.25;;;4.73;90.48
16777;BME280;8505;49.456;8.164;2022-11-20T09:30:25;99312.13;;;4.97;89.84
16777;BME280;8505;49.456;8.164;2022-11-20T09:32:53;99311.94;;;5.25;88.26
16777;BME280;8505;49.456;8.164;2022-11-20T09:35:21;99315.56;;;5.24;88.16
16777;BME280;8505;49.456;8.164;2022-11-20T09:37:48;99313.66;;;4.99;88.68
16777;BME280;8505;49.456;8.164;2022-11-20T09:40:20;99309.50;;;4.97;88.52
16777;BME280;8505;49.456;8.164;2022-11-20T09:42:51;99316.16;;;4.91;89.45
16777;BME280;8505;49.456;8.164;2022-11-20T09:45:26;99321.81;;;5.14;89.15
16777;BME280;8505;49.456;8.164;2022-11-20T09:48:22;99313.91;;;4.96;89.89
16777;BME280;8505;49.456;8.164;2022-11-20T09:50:58;99319.72;;;5.00;88.92
16777;BME280;8505;49.456;8.164;2022-11-20T09:53:35;99324.19;;;5.35;88.15
16777;BME280;8505;49.456;8.164;2022-11-20T09:56:08;99328.84;;;5.23;87.44
16777;BME280;8505;49.456;8.164;2022-11-20T09:58:47;99318.13;;;5.07;89.49
16777;BME280;8505;49.456;8.164;2022-11-20T10:01:17;99327.44;;;5.46;88.54
16777;BME280;8505;49.456;8.164;2022-11-20T10:03:51;99322.19;;;5.46;88.59
16777;BME280;8505;49.456;8.164;2022-11-20T10:06:27;99314.75;;;5.77;87.57
16777;BME280;8505;49.456;8.164;2022-11-20T10:09:03;99314.16;;;5.65;85.83
16777;BME280;8505;49.456;8.164;2022-11-20T10:11:44;99310.78;;;5.55;88.56
16777;BME280;8505;49.456;8.164;2022-11-20T10:14:26;99307.56;;;5.61;88.38
16777;BME280;8505;49.456;8.164;2022-11-20T10:17:02;99301.94;;;5.92;86.70
16777;BME280;8505;49.456;8.164;2022-11-20T10:19:48;99290.81;;;5.62;87.74
16777;BME280;8505;49.456;8.164;2022-11-20T10:22:34;99295.03;;;5.55;87.12
16777;BME280;8505;49.456;8.164;2022-11-20T10:25:13;99298.75;;;5.70;87.83
16777;BME280;8505;49.456;8.164;2022-11-20T10:28:05;99301.63;;;5.42;88.73
16777;BME280;8505;49.456;8.164;2022-11-20T10:30:37;99300.34;;;5.63;88.92
16777;BME280;8505;49.456;8.164;2022-11-20T10:33:13;99303.25;;;5.25;90.99
16777;BME280;8505;49.456;8.164;2022-11-20T10:35:45;99300.31;;;4.83;90.92
16777;BME280;8505;49.456;8.164;2022-11-20T10:38:21;99309.03;;;5.28;89.84
16777;BME280;8505;49.456;8.164;2022-11-20T10:40:54;99293.06;;;5.57;89.39
16777;BME280;8505;49.456;8.164;2022-11-20T10:43:46;99288.69;;;6.01;87.35
16777;BME280;8505;49.456;8.164;2022-11-20T10:46:16;99284.28;;;6.62;86.64
16777;BME280;8505;49.456;8.164;2022-11-20T10:48:45;99279.38;;;7.09;84.66
16777;BME280;8505;49.456;8.164;2022-11-20T10:51:21;99275.47;;;7.21;84.87
16777;BME280;8505;49.456;8.164;2022-11-20T10:54:06;99273.69;;;7.86;81.72
16777;BME280;8505;49.456;8.164;2022-11-20T10:56:40;99260.16;;;8.05;82.47
16777;BME280;8505;49.456;8.164;2022-11-20T10:59:41;99270.38;;;7.27;83.70
16777;BME280;8505;49.456;8.164;2022-11-20T11:02:18;99268.72;;;7.26;85.25
16777;BME280;8505;49.456;8.164;2022-11-20T11:04:48;99256.41;;;7.67;83.58
16777;BME280;8505;49.456;8.164;2022-11-20T11:07:20;99256.22;;;7.93;81.26
16777;BME280;8505;49.456;8.164;2022-11-20T11:09:50;99243.16;;;8.79;80.37
16777;BME280;8505;49.456;8.164;2022-11-20T11:12:19;99249.94;;;8.74;79.37
16777;BME280;8505;49.456;8.164;2022-11-20T11:14:51;99248.78;;;8.76;78.35
16777;BME280;8505;49.456;8.164;2022-11-20T11:17:22;99243.00;;;8.26;79.86
16777;BME280;8505;49.456;8.164;2022-11-20T11:20:00;99242.69;;;8.12;81.87
16777;BME280;8505;49.456;8.164;2022-11-20T11:22:31;99243.22;;;8.08;82.32
16777;BME280;8505;49.456;8.164;2022-11-20T11:24:59;99235.31;;;7.92;83.93
16777;BME280;8505;49.456;8.164;2022-11-20T11:27:27;99229.06;;;7.77;84.05
16777;BME280;8505;49.456;8.164;2022-11-20T11:30:11;99230.84;;;8.00;83.06
16777;BME280;8505;49.456;8.164;2022-11-20T11:32:40;99223.09;;;8.07;82.89
16777;BME280;8505;49.456;8.164;2022-11-20T11:35:20;99225.06;;;8.05;82.43
16777;BME280;8505;49.456;8.164;2022-11-20T11:37:51;99218.66;;;7.91;82.41
16777;BME280;8505;49.456;8.164;2022-11-20T11:40:21;99214.06;;;7.93;83.15
16777;BME280;8505;49.456;8.164;2022-11-20T11:42:54;99212.66;;;8.22;83.11
16777;BME280;8505;49.456;8.164;2022-11-20T11:45:24;99209.19;;;8.45;80.90
16777;BME280;8505;49.456;8.164;2022-11-20T11:47:52;99211.25;;;8.89;80.20
16777;BME280;8505;49.456;8.164;2022-11-20T11:50:23;99201.78;;;9.03;79.05
16777;BME280;8505;49.456;8.164;2022-11-20T11:53:01;99200.53;;;8.90;78.10
16777;BME280;8505;49.456;8.164;2022-11-20T11:55:35;99194.16;;;9.30;75.19
16777;BME280;8505;49.456;8.164;2022-11-20T11:58:16;99189.44;;;8.64;75.43
16777;BME280;8505;49.456;8.164;2022-11-20T12:00:51;99186.16;;;8.62;76.48
16777;BME280;8505;49.456;8.164;2022-11-20T12:03:27;99193.78;;;8.57;76.59
16777;BME280;8505;49.456;8.164;2022-11-20T12:05:59;99189.50;;;8.56;76.90
16777;BME280;8505;49.456;8.164;2022-11-20T12:08:32;99192.97;;;8.48;76.56
16777;BME280;8505;49.456;8.164;2022-11-20T12:11:12;99188.75;;;8.70;77.07
16777;BME280;8505;49.456;8.164;2022-11-20T12:13:48;99197.72;;;8.61;76.36
16777;BME280;8505;49.456;8.164;2022-11-20T12:16:22;99190.66;;;8.53;77.31
16777;BME280;8505;49.456;8.164;2022-11-20T12:18:51;99193.00;;;8.40;76.04
16777;BME280;8505;49.456;8.164;2022-11-20T12:21:28;99188.41;;;8.42;77.07
16777;BME280;8505;49.456;8.164;2022-11-20T12:24:14;99189.88;;;8.45;77.78
16777;BME280;8505;49.456;8.164;2022-11-20T12:26:57;99188.25;;;8.36;77.23
16777;BME280;8505;49.456;8.164;2022-11-20T12:29:37;99188.59;;;8.33;76.81
16777;BME280;8505;49.456;8.164;2022-11-20T12:32:32;99184.09;;;8.41;77.23
16777;BME280;8505;49.456;8.164;2022-11-20T12:35:13;99189.75;;;8.38;76.71
16777;BME280;8505;49.456;8.164;2022-11-20T12:37:49;99187.25;;;8.45;77.15
16777;BME280;8505;49.456;8.164;2022-11-20T12:40:28;99181.97;;;8.45;77.05
16777;BME280;8505;49.456;8.164;2022-11-20T12:43:06;99186.06;;;8.47;77.46
16777;BME280;8505;49.456;8.164;2022-11-20T12:46:08;99191.97;;;8.58;77.41
16777;BME280;8505;49.456;8.164;2022-11-20T12:48:52;99181.84;;;8.69;77.18
16777;BME280;8505;49.456;8.164;2022-11-20T12:51:37;99172.56;;;8.73;76.82
16777;BME280;8505;49.456;8.164;2022-11-20T12:54:29;99168.66;;;8.69;75.62
16777;BME280;8505;49.456;8.164;2022-11-20T12:57:07;99161.97;;;8.81;76.72
16777;BME280;8505;49.456;8.164;2022-11-20T12:59:50;99162.69;;;8.98;76.24
16777;BME280;8505;49.456;8.164;2022-11-20T13:02:25;99162.56;;;8.91;74.94
16777;BME280;8505;49.456;8.164;2022-11-20T13:05:07;99158.50;;;8.81;74.40
16777;BME280;8505;49.456;8.164;2022-11-20T13:07:42;99160.81;;;9.07;74.28
16777;BME280;8505;49.456;8.164;2022-11-20T13:10:16;99158.75;;;9.17;73.76
16777;BME280;8505;49.456;8.164;2022-11-20T13:12:49;99163.16;;;9.02;73.97
16777;BME280;8505;49.456;8.164;2022-11-20T13:15:31;99153.25;;;9.04;73.76
16777;BME280;8505;49.456;8.164;2022-11-20T13:18:04;99159.00;;;9.30;73.61
16777;BME280;8505;49.456;8.164;2022-11-20T13:20:34;99151.53;;;9.33;73.54
16777;BME280;8505;49.456;8.164;2022-11-20T13:23:03;99152.50;;;9.32;72.26
16777;BME280;8505;49.456;8.164;2022-11-20T13:25:32;99145.06;;;9.36;71.94
16777;BME280;8505;49.456;8.164;2022-11-20T13:28:03;99138.59;;;9.39;71.66
16777;BME280;8505;49.456;8.164;2022-11-20T13:30:31;99145.00;;;9.21;71.35
16777;BME280;8505;49.456;8.164;2022-11-20T13:33:04;99143.56;;;9.19;70.03
16777;BME280;8505;49.456;8.164;2022-11-20T13:35:36;99137.69;;;9.09;68.71
16777;BME280;8505;49.456;8.164;2022-11-20T13:38:07;99136.41;;;9.05;68.04
16777;BME280;8505;49.456;8.164;2022-11-20T13:40:37;99132.69;;;9.51;67.56
16777;BME280;8505;49.456;8.164;2022-11-20T13:43:19;99132.03;;;10.16;62.19